Bradley, Alabama
Current Conditions -  °F | °C
As of 4:58 PM on Friday 31 Oct 2014 (Local Time) from K0J4 Reporting Station
Scattered Clouds Scattered Clouds  
Wind Chill: 69°   Ceiling: Unl
Heat Index: 69°   Visibility: 10mi
Dew Point: 47°   Wind: 5mph
Humidity: 45%   Direction: NA
Pressure: 29.93"   Gusts: NA
Location:  31.1221°N, 86.5862°W
Report Text: K0J4 312158Z AUTO VRB04KT 10SM FEW060 SCT080 21/08 A2993 RMK AO2 SLP133 T02060083 $
Loading
Personal Weather Stations






























Interactive Weather Map
Tropical Storm Tracking
New forecast layout! Learn more

10-Day Weather Forecast

Advertisements
Track Severe Weather on mobile